createdAt,value
2018-07-24T00:02:00.087Z,15.50
2018-07-24T00:04:29.107Z,15.53
2018-07-24T00:06:57.676Z,15.20
2018-07-24T00:09:25.782Z,18.00
2018-07-24T00:11:53.917Z,16.80
2018-07-24T00:14:21.878Z,16.83
2018-07-24T00:16:49.902Z,16.87
2018-07-24T00:19:17.860Z,16.80
2018-07-24T00:21:45.854Z,17.00
2018-07-24T00:24:13.926Z,16.90
2018-07-24T00:26:41.929Z,16.33
2018-07-24T00:29:09.909Z,16.43
2018-07-24T00:31:37.919Z,17.93
2018-07-24T00:34:05.879Z,18.70
2018-07-24T00:36:33.878Z,18.23
2018-07-24T00:39:02.052Z,16.50
2018-07-24T00:41:30.982Z,17.90
2018-07-24T00:44:00.015Z,17.43
2018-07-24T00:46:28.468Z,18.57
2018-07-24T00:48:56.593Z,17.70
2018-07-24T00:51:24.683Z,18.37
2018-07-24T00:53:52.625Z,17.57
2018-07-24T00:56:20.629Z,18.30
2018-07-24T00:58:48.729Z,17.30
2018-07-24T01:01:16.714Z,16.70
2018-07-24T01:03:44.674Z,17.10
2018-07-24T01:06:12.683Z,16.40
2018-07-24T01:08:40.728Z,16.93
2018-07-24T01:11:08.703Z,18.60
2018-07-24T01:13:36.681Z,16.97
2018-07-24T01:16:04.681Z,17.27
2018-07-24T01:18:33.049Z,17.20
2018-07-24T01:21:01.918Z,17.57
2018-07-24T01:23:30.777Z,17.17
2018-07-24T01:25:59.157Z,17.63
2018-07-24T01:28:27.268Z,17.03
2018-07-24T01:30:55.313Z,17.90
2018-07-24T01:33:23.262Z,18.40
2018-07-24T01:35:51.250Z,17.80
2018-07-24T01:38:19.212Z,17.73
2018-07-24T01:40:47.246Z,18.52
2018-07-24T01:43:15.210Z,18.50
2018-07-24T01:45:43.222Z,19.60
2018-07-24T01:48:11.165Z,17.13
2018-07-24T01:50:39.134Z,17.90
2018-07-24T01:53:07.126Z,17.90
2018-07-24T01:55:35.110Z,19.53
2018-07-24T01:58:03.705Z,19.60
2018-07-24T02:00:32.806Z,18.43
2018-07-24T02:03:01.464Z,19.23
2018-07-24T02:05:29.498Z,19.47
2018-07-24T02:07:57.473Z,18.83
2018-07-24T02:10:25.447Z,20.40
2018-07-24T02:12:53.982Z,19.87
2018-07-24T02:15:21.970Z,17.80
2018-07-24T02:17:49.961Z,19.30
2018-07-24T02:20:17.943Z,17.63
2018-07-24T02:22:45.950Z,18.03
2018-07-24T02:25:13.911Z,19.40
2018-07-24T02:27:41.920Z,18.30
2018-07-24T02:30:10.772Z,17.97
2018-07-24T02:32:39.905Z,18.80
2018-07-24T02:35:08.860Z,18.60
2018-07-24T02:37:37.439Z,18.30
2018-07-24T02:40:05.588Z,19.03
2018-07-24T02:42:33.644Z,19.40
2018-07-24T02:45:01.623Z,17.10
2018-07-24T02:47:29.644Z,18.70
2018-07-24T02:49:57.593Z,19.50
2018-07-24T02:52:25.586Z,19.30
2018-07-24T02:54:53.543Z,17.57
2018-07-24T02:57:21.528Z,19.30
2018-07-24T02:59:49.476Z,18.20
2018-07-24T03:02:17.471Z,19.03
2018-07-24T03:04:45.442Z,20.37
2018-07-24T03:07:13.452Z,17.53
2018-07-24T03:09:42.841Z,19.43
2018-07-24T03:12:12.620Z,20.15
2018-07-24T03:14:41.696Z,18.87
2018-07-24T03:17:11.352Z,18.10
2018-07-24T03:19:40.404Z,17.43
2018-07-24T03:22:09.095Z,17.37
2018-07-24T03:24:37.154Z,17.90
2018-07-24T03:27:05.304Z,18.17
2018-07-24T03:29:33.276Z,20.87
2018-07-24T03:32:01.271Z,18.17
2018-07-24T03:34:29.231Z,18.10
2018-07-24T03:36:57.195Z,19.63
2018-07-24T03:39:25.211Z,20.00
2018-07-24T03:41:53.188Z,18.87
2018-07-24T03:44:21.231Z,20.17
2018-07-24T03:46:49.190Z,18.90
2018-07-24T03:49:17.180Z,20.60
2018-07-24T03:51:45.162Z,20.90
2018-07-24T03:54:13.346Z,18.97
2018-07-24T03:56:41.986Z,18.30
2018-07-24T03:59:10.890Z,18.83
2018-07-24T04:01:39.469Z,19.60
2018-07-24T04:04:07.599Z,19.10
2018-07-24T04:06:35.758Z,19.20
2018-07-24T04:09:05.550Z,20.40
2018-07-24T04:11:33.517Z,18.13
2018-07-24T04:14:01.505Z,18.47
2018-07-24T04:16:29.483Z,18.67
2018-07-24T04:18:57.522Z,18.17
2018-07-24T04:21:25.516Z,19.57
2018-07-24T04:23:53.511Z,17.80
2018-07-24T04:26:21.453Z,19.80
2018-07-24T04:28:49.438Z,20.23
2018-07-24T04:31:17.743Z,19.80
2018-07-24T04:33:45.735Z,33.37
2018-07-24T04:36:13.838Z,22.50
2018-07-24T04:38:42.837Z,22.20
2018-07-24T04:41:11.773Z,20.83
2018-07-24T04:43:40.372Z,19.20
2018-07-24T04:46:08.366Z,22.60
2018-07-24T04:48:36.515Z,20.10
2018-07-24T04:51:04.485Z,19.90
2018-07-24T04:53:32.494Z,19.00
2018-07-24T04:56:00.510Z,19.50
2018-07-24T04:58:28.505Z,19.83
2018-07-24T05:00:56.511Z,18.90
2018-07-24T05:03:24.592Z,19.17
2018-07-24T05:05:52.515Z,19.10
2018-07-24T05:08:20.680Z,19.73
2018-07-24T05:10:48.668Z,16.93
2018-07-24T05:13:16.788Z,17.73
2018-07-24T05:15:44.936Z,17.07
2018-07-24T05:18:13.797Z,16.40
2018-07-24T05:20:42.785Z,17.63
2018-07-24T05:23:11.472Z,15.50
2018-07-24T05:25:39.756Z,17.77
2018-07-24T05:28:07.891Z,17.17
2018-07-24T05:30:35.887Z,16.30
2018-07-24T05:33:03.870Z,18.50
2018-07-24T05:35:31.863Z,18.40
2018-07-24T05:37:59.822Z,16.40
2018-07-24T05:40:27.861Z,17.80
2018-07-24T05:42:55.941Z,16.13
2018-07-24T05:45:23.993Z,20.43
2018-07-24T05:47:51.947Z,30.13
2018-07-24T05:50:19.934Z,21.63
2018-07-24T05:52:47.902Z,17.90
2018-07-24T05:55:15.914Z,18.13
2018-07-24T05:57:44.586Z,17.37
2018-07-24T06:00:13.691Z,24.80
2018-07-24T06:02:42.360Z,21.53
2018-07-24T06:05:10.540Z,21.67
2018-07-24T06:07:38.676Z,20.53
2018-07-24T06:10:06.708Z,18.07
2018-07-24T06:12:34.698Z,18.57
2018-07-24T06:15:02.695Z,18.40
2018-07-24T06:17:30.706Z,16.43
2018-07-24T06:19:58.686Z,18.33
2018-07-24T06:22:26.646Z,15.67
2018-07-24T06:24:54.679Z,16.80
2018-07-24T06:27:22.623Z,17.30
2018-07-24T06:29:50.677Z,16.10
2018-07-24T06:32:18.643Z,16.60
2018-07-24T06:34:46.690Z,16.30
2018-07-24T06:37:15.174Z,17.60
2018-07-24T06:39:44.551Z,23.25
2018-07-24T06:42:13.230Z,25.60
2018-07-24T06:44:41.247Z,17.73
2018-07-24T06:47:09.549Z,17.13
2018-07-24T06:49:37.555Z,15.80
2018-07-24T06:52:05.542Z,16.10
2018-07-24T06:54:33.568Z,16.50
2018-07-24T06:57:01.538Z,15.33
2018-07-24T06:59:29.542Z,14.93
2018-07-24T07:01:57.550Z,14.73
2018-07-24T07:04:25.531Z,16.17
2018-07-24T07:06:53.568Z,14.90
2018-07-24T07:09:21.528Z,16.80
2018-07-24T07:11:49.519Z,20.43
2018-07-24T07:14:17.482Z,33.10
2018-07-24T07:16:46.088Z,19.70
2018-07-24T07:19:15.181Z,17.70
2018-07-24T07:21:43.909Z,15.60
2018-07-24T07:24:11.916Z,15.17
2018-07-24T07:26:40.058Z,15.70
2018-07-24T07:29:08.104Z,14.33
2018-07-24T07:31:36.307Z,16.50
2018-07-24T07:34:04.268Z,11.90
2018-07-24T07:36:32.298Z,14.57
2018-07-24T07:39:00.265Z,21.40
2018-07-24T07:41:28.295Z,16.43
2018-07-24T07:43:56.276Z,15.07
2018-07-24T07:46:24.302Z,12.63
2018-07-24T07:48:52.307Z,15.03
2018-07-24T07:51:20.300Z,15.30
2018-07-24T07:53:48.287Z,18.70
2018-07-24T07:56:16.779Z,14.30
2018-07-24T07:58:45.889Z,16.73
2018-07-24T08:01:14.837Z,16.30
2018-07-24T08:03:43.314Z,16.67
2018-07-24T08:06:11.460Z,15.47
2018-07-24T08:08:39.416Z,11.13
2018-07-24T08:11:07.439Z,12.00
2018-07-24T08:13:35.441Z,11.73
2018-07-24T08:16:03.471Z,12.53
2018-07-24T08:18:31.472Z,11.77
2018-07-24T08:20:59.607Z,14.30
2018-07-24T08:23:27.674Z,15.27
2018-07-24T08:25:55.775Z,13.07
2018-07-24T08:28:23.747Z,15.73
2018-07-24T08:30:51.797Z,11.40
2018-07-24T08:33:19.757Z,11.90
2018-07-24T08:35:48.050Z,13.30
2018-07-24T08:38:16.914Z,15.60
2018-07-24T08:40:46.004Z,17.13
2018-07-24T08:43:14.618Z,20.17
2018-07-24T08:45:42.654Z,16.70
2018-07-24T08:48:10.744Z,12.40
2018-07-24T08:50:38.699Z,14.20
2018-07-24T08:53:06.810Z,25.73
2018-07-24T08:55:35.111Z,15.33
2018-07-24T08:58:02.717Z,17.87
2018-07-24T09:00:30.702Z,12.07
2018-07-24T09:02:58.849Z,14.87
2018-07-24T09:05:26.819Z,15.10
2018-07-24T09:07:54.900Z,16.43
2018-07-24T09:10:22.885Z,12.60
2018-07-24T09:12:50.933Z,14.03
2018-07-24T09:15:19.254Z,12.10
2018-07-24T09:17:47.936Z,17.27
2018-07-24T09:20:16.211Z,12.47
2018-07-24T09:22:44.592Z,14.83
2018-07-24T09:25:12.581Z,14.10
2018-07-24T09:27:40.901Z,11.57
2018-07-24T09:30:09.960Z,15.20
2018-07-24T09:32:39.267Z,19.30
2018-07-24T09:35:07.815Z,14.87
2018-07-24T09:37:35.946Z,16.17
2018-07-24T09:40:04.289Z,12.67
2018-07-24T09:42:32.283Z,14.07
2018-07-24T09:45:00.336Z,13.03
2018-07-24T09:47:28.319Z,14.17
2018-07-24T09:49:56.298Z,13.97
2018-07-24T09:52:24.298Z,11.83
2018-07-24T09:54:52.271Z,11.50
2018-07-24T09:57:20.315Z,13.40
2018-07-24T09:59:48.371Z,9.43
2018-07-24T10:02:16.362Z,11.37
2018-07-24T10:04:44.326Z,9.67
2018-07-24T10:07:12.411Z,10.77
2018-07-24T10:09:41.052Z,10.83
2018-07-24T10:12:10.501Z,11.37
2018-07-24T10:14:39.428Z,10.23
2018-07-24T10:17:08.142Z,9.93
2018-07-24T10:19:36.682Z,9.60
2018-07-24T10:22:04.797Z,12.07
2018-07-24T10:24:32.818Z,9.73
2018-07-24T10:27:00.807Z,8.57
2018-07-24T10:29:28.795Z,9.50
2018-07-24T10:31:56.777Z,11.97
2018-07-24T10:34:24.794Z,9.30
2018-07-24T10:36:52.761Z,9.10
2018-07-24T10:39:20.784Z,9.53
2018-07-24T10:41:48.753Z,9.37
2018-07-24T10:44:16.752Z,12.20
2018-07-24T10:46:44.701Z,11.40
2018-07-24T10:49:12.898Z,9.07
2018-07-24T10:51:41.637Z,9.07
2018-07-24T10:54:10.640Z,8.80
2018-07-24T10:56:39.424Z,8.23
2018-07-24T10:59:07.591Z,10.53
2018-07-24T11:01:35.704Z,9.20
2018-07-24T11:04:03.739Z,10.80
2018-07-24T11:06:31.735Z,8.60
2018-07-24T11:08:59.726Z,9.10
2018-07-24T11:11:27.682Z,9.60
2018-07-24T11:13:55.651Z,8.77
2018-07-24T11:16:23.656Z,10.47
2018-07-24T11:18:51.647Z,8.57
2018-07-24T11:21:19.614Z,9.73
2018-07-24T11:23:47.595Z,7.40
2018-07-24T11:26:15.555Z,10.93
2018-07-24T11:28:43.663Z,7.90
2018-07-24T11:31:12.360Z,7.90
2018-07-24T11:33:41.323Z,8.00
2018-07-24T11:36:11.158Z,7.40
2018-07-24T11:38:39.669Z,7.80
2018-07-24T11:41:07.949Z,7.67
2018-07-24T11:43:36.233Z,9.70
2018-07-24T11:46:04.201Z,8.17
2018-07-24T11:48:32.206Z,8.10
2018-07-24T11:51:00.169Z,8.97
2018-07-24T11:53:28.167Z,8.03
2018-07-24T11:55:56.145Z,8.23
2018-07-24T11:58:24.130Z,8.47
2018-07-24T12:00:52.116Z,7.57
2018-07-24T12:03:20.102Z,6.63
2018-07-24T12:05:48.040Z,8.57
2018-07-24T12:08:16.041Z,8.73
2018-07-24T12:10:44.111Z,7.43
2018-07-24T12:13:13.002Z,6.40
2018-07-24T12:15:42.021Z,7.57
2018-07-24T12:18:10.599Z,8.03
2018-07-24T12:20:38.729Z,7.07
2018-07-24T12:23:06.952Z,7.00
2018-07-24T12:25:34.926Z,6.03
2018-07-24T12:28:02.894Z,15.50
2018-07-24T12:30:30.890Z,8.10
2018-07-24T12:32:58.865Z,7.70
2018-07-24T12:35:26.845Z,7.30
2018-07-24T12:37:54.850Z,7.80
2018-07-24T12:40:22.863Z,6.10
2018-07-24T12:42:50.841Z,7.13
2018-07-24T12:45:18.846Z,8.23
2018-07-24T12:47:46.814Z,8.17
2018-07-24T12:50:14.926Z,7.60
2018-07-24T12:52:43.806Z,7.47
2018-07-24T12:55:12.790Z,7.10
2018-07-24T12:57:41.390Z,6.37
2018-07-24T13:00:10.595Z,6.37
2018-07-24T13:02:38.814Z,7.90
2018-07-24T13:05:06.833Z,7.80
2018-07-24T13:07:34.859Z,6.90
2018-07-24T13:10:03.000Z,6.87
2018-07-24T13:12:30.867Z,7.20
2018-07-24T13:14:58.863Z,6.93
2018-07-24T13:17:26.863Z,6.07
2018-07-24T13:19:54.891Z,6.70
2018-07-24T13:22:22.857Z,6.37
2018-07-24T13:24:50.846Z,8.10
2018-07-24T13:27:18.806Z,6.43
2018-07-24T13:29:46.783Z,6.23
2018-07-24T13:32:15.068Z,6.40
2018-07-24T13:34:44.136Z,6.17
2018-07-24T13:37:12.998Z,7.47
2018-07-24T13:39:41.483Z,6.93
2018-07-24T13:42:09.593Z,6.77
2018-07-24T13:44:37.634Z,6.30
2018-07-24T13:47:05.734Z,6.17
2018-07-24T13:49:33.727Z,7.60
2018-07-24T13:52:01.754Z,7.10
2018-07-24T13:54:29.680Z,6.83
2018-07-24T13:56:57.661Z,6.13
2018-07-24T13:59:25.617Z,6.17
2018-07-24T14:01:53.619Z,6.80
2018-07-24T14:04:21.571Z,5.80
2018-07-24T14:06:49.554Z,6.47
2018-07-24T14:09:17.536Z,6.37
2018-07-24T14:11:45.803Z,5.47
2018-07-24T14:14:14.775Z,5.50
2018-07-24T14:16:43.442Z,6.23
2018-07-24T14:19:11.450Z,7.00
2018-07-24T14:21:39.613Z,5.17
2018-07-24T14:24:07.583Z,8.00
2018-07-24T14:26:35.551Z,7.70
2018-07-24T14:29:03.555Z,5.90
2018-07-24T14:31:31.543Z,5.60
2018-07-24T14:33:59.498Z,6.00
2018-07-24T14:36:27.491Z,8.63
2018-07-24T14:38:55.458Z,6.33
2018-07-24T14:41:23.480Z,7.00
2018-07-24T14:43:51.470Z,14.60
2018-07-24T14:46:19.509Z,8.20
2018-07-24T14:48:47.478Z,7.17
2018-07-24T14:51:16.116Z,6.20
2018-07-24T14:53:45.076Z,6.07
2018-07-24T14:56:13.969Z,6.87
2018-07-24T14:58:42.474Z,6.33
2018-07-24T15:01:11.033Z,6.17
2018-07-24T15:03:39.926Z,4.97
2018-07-24T15:06:08.151Z,5.97
2018-07-24T15:08:36.128Z,5.40
2018-07-24T15:11:04.107Z,5.37
2018-07-24T15:13:32.109Z,4.90
2018-07-24T15:16:00.082Z,6.10
2018-07-24T15:18:28.081Z,5.67
2018-07-24T15:20:56.113Z,5.50
2018-07-24T15:23:24.123Z,5.10
2018-07-24T15:25:52.090Z,5.70
2018-07-24T15:28:20.055Z,6.43
2018-07-24T15:30:48.309Z,5.50
2018-07-24T15:33:16.928Z,5.80
2018-07-24T15:35:45.886Z,5.90
2018-07-24T15:38:14.463Z,5.90
2018-07-24T15:40:42.614Z,5.20
2018-07-24T15:43:10.707Z,5.60
2018-07-24T15:45:39.152Z,5.40
2018-07-24T15:48:07.235Z,5.70
2018-07-24T15:50:35.694Z,4.80
2018-07-24T15:53:04.460Z,5.30
2018-07-24T15:55:33.113Z,4.97
2018-07-24T15:58:02.074Z,5.43
2018-07-24T16:00:30.941Z,5.83
2018-07-24T16:02:59.940Z,6.60
2018-07-24T16:05:28.766Z,5.60
2018-07-24T16:07:57.679Z,4.90
2018-07-24T16:10:26.378Z,7.67
2018-07-24T16:12:55.037Z,6.23
2018-07-24T16:15:23.808Z,5.67
2018-07-24T16:17:52.756Z,4.93
2018-07-24T16:20:22.000Z,6.07
2018-07-24T16:22:50.817Z,5.50
2018-07-24T16:25:19.723Z,6.13
2018-07-24T16:27:48.722Z,5.10
2018-07-24T16:30:18.072Z,5.83
2018-07-24T16:32:47.484Z,7.20
2018-07-24T16:35:16.879Z,16.83
2018-07-24T16:37:46.088Z,6.10
2018-07-24T16:40:15.240Z,6.27
2018-07-24T16:42:43.864Z,7.27
2018-07-24T16:45:12.701Z,4.97
2018-07-24T16:47:41.653Z,4.67
2018-07-24T16:50:10.582Z,4.53
2018-07-24T16:52:39.322Z,4.87
2018-07-24T16:55:08.253Z,5.10
2018-07-24T16:57:37.985Z,4.80
2018-07-24T17:00:06.829Z,4.83
2018-07-24T17:02:35.511Z,5.17
2018-07-24T17:05:04.389Z,5.70
2018-07-24T17:07:33.223Z,7.80
2018-07-24T17:10:01.876Z,6.07
2018-07-24T17:12:30.790Z,5.17
2018-07-24T17:14:59.664Z,6.00
2018-07-24T17:17:28.745Z,5.73
2018-07-24T17:19:57.723Z,7.00
2018-07-24T17:22:26.493Z,6.10
2018-07-24T17:24:55.376Z,5.13
2018-07-24T17:27:24.195Z,5.33
2018-07-24T17:29:52.961Z,7.00
2018-07-24T17:32:21.720Z,10.77
2018-07-24T17:34:50.528Z,6.80
2018-07-24T17:37:19.571Z,6.47
2018-07-24T17:39:49.080Z,5.10
2018-07-24T17:42:18.446Z,5.33
2018-07-24T17:44:47.875Z,4.97
2018-07-24T17:47:17.174Z,5.50
2018-07-24T17:49:46.399Z,9.10
2018-07-24T17:52:15.145Z,8.23
2018-07-24T17:54:44.086Z,5.37
2018-07-24T17:57:12.806Z,5.17
2018-07-24T17:59:41.511Z,5.30
2018-07-24T18:02:10.737Z,6.40
2018-07-24T18:04:39.628Z,4.97
2018-07-24T18:07:08.458Z,5.30
2018-07-24T18:09:37.318Z,5.80
2018-07-24T18:12:06.196Z,5.00
2018-07-24T18:14:34.851Z,4.90
2018-07-24T18:17:03.924Z,5.87
2018-07-24T18:19:32.842Z,6.60
2018-07-24T18:22:01.485Z,7.73
2018-07-24T18:24:30.027Z,6.00
2018-07-24T18:26:58.834Z,6.93
2018-07-24T18:29:28.124Z,5.83
2018-07-24T18:31:57.768Z,7.13
2018-07-24T18:34:26.881Z,6.93
2018-07-24T18:36:56.371Z,6.50
2018-07-24T18:39:25.362Z,7.33
2018-07-24T18:41:54.449Z,7.27
2018-07-24T18:44:23.367Z,7.40
2018-07-24T18:46:52.352Z,6.50
2018-07-24T18:49:21.667Z,6.70
2018-07-24T18:51:51.339Z,7.47
2018-07-24T18:54:21.158Z,14.40
2018-07-24T18:56:50.913Z,7.70
2018-07-24T18:59:20.915Z,7.50
2018-07-24T19:01:50.267Z,4.33
2018-07-24T19:04:19.569Z,4.77
2018-07-24T19:06:48.607Z,5.07
2018-07-24T19:09:16.745Z,5.90
2018-07-24T19:11:44.714Z,6.70
2018-07-24T19:14:12.797Z,6.00
2018-07-24T19:16:40.762Z,6.60
2018-07-24T19:19:08.788Z,7.13
2018-07-24T19:21:36.778Z,6.50
2018-07-24T19:24:04.828Z,6.60
2018-07-24T19:26:32.782Z,6.97
2018-07-24T19:29:00.767Z,8.33
2018-07-24T19:31:28.722Z,6.80
2018-07-24T19:33:56.703Z,7.10
2018-07-24T19:36:24.645Z,7.40
2018-07-24T19:38:52.971Z,7.00
2018-07-24T19:41:22.057Z,7.80
2018-07-24T19:43:50.925Z,8.33
2018-07-24T19:46:19.708Z,8.03
2018-07-24T19:48:49.020Z,6.77
2018-07-24T19:51:17.411Z,8.00
2018-07-24T19:53:46.449Z,12.20
2018-07-24T19:56:15.876Z,9.07
2018-07-24T19:58:44.560Z,9.00
2018-07-24T20:01:12.687Z,7.80
2018-07-24T20:03:40.698Z,7.53
2018-07-24T20:06:08.653Z,8.80
2018-07-24T20:08:36.621Z,8.30
2018-07-24T20:11:04.626Z,9.63
2018-07-24T20:13:32.599Z,8.77
2018-07-24T20:16:00.626Z,9.33
2018-07-24T20:18:28.590Z,8.40
2018-07-24T20:20:56.574Z,9.33
2018-07-24T20:23:24.859Z,9.70
2018-07-24T20:25:53.751Z,8.90
2018-07-24T20:28:22.872Z,8.60
2018-07-24T20:30:51.762Z,8.93
2018-07-24T20:33:19.834Z,8.90
2018-07-24T20:35:47.997Z,10.23
2018-07-24T20:38:15.945Z,9.20
2018-07-24T20:40:43.963Z,9.10
2018-07-24T20:45:52.387Z,7.90
2018-07-24T20:48:20.462Z,8.50
2018-07-24T20:50:49.280Z,9.00
2018-07-24T20:53:17.278Z,8.90
2018-07-24T20:55:45.402Z,8.60
2018-07-24T20:58:13.370Z,8.90
2018-07-24T21:00:41.343Z,8.80
2018-07-24T21:03:09.329Z,9.33
2018-07-24T21:05:37.370Z,9.40
2018-07-24T21:08:05.463Z,10.13
2018-07-24T21:10:33.459Z,10.37
2018-07-24T21:13:01.476Z,9.77
2018-07-24T21:15:29.514Z,10.30
2018-07-24T21:17:57.483Z,10.23
2018-07-24T21:20:25.936Z,9.70
2018-07-24T21:22:55.033Z,9.90
2018-07-24T21:25:23.768Z,10.97
2018-07-24T21:27:51.863Z,9.83
2018-07-24T21:30:19.983Z,10.77
2018-07-24T21:32:47.965Z,9.40
2018-07-24T21:35:16.012Z,10.40
2018-07-24T21:37:44.007Z,9.57
2018-07-24T21:40:12.003Z,10.37
2018-07-24T21:42:40.070Z,10.20
2018-07-24T21:45:08.023Z,10.57
2018-07-24T21:47:36.043Z,10.53
2018-07-24T21:50:04.065Z,10.50
2018-07-24T21:52:32.049Z,9.57
2018-07-24T21:55:00.024Z,10.53
2018-07-24T21:57:28.124Z,10.10
2018-07-24T21:59:56.771Z,10.80
2018-07-24T22:02:25.909Z,10.87
2018-07-24T22:04:54.889Z,9.53
2018-07-24T22:07:22.962Z,10.60
2018-07-24T22:09:51.078Z,10.30
2018-07-24T22:12:19.061Z,11.13
2018-07-24T22:14:47.049Z,11.90
2018-07-24T22:17:15.069Z,11.70
2018-07-24T22:19:43.035Z,10.67
2018-07-24T22:22:11.063Z,11.60
2018-07-24T22:24:39.042Z,11.07
2018-07-24T22:27:07.032Z,10.40
2018-07-24T22:29:35.003Z,10.40
2018-07-24T22:32:02.999Z,9.77
2018-07-24T22:34:30.957Z,10.67
2018-07-24T22:36:59.122Z,11.20
2018-07-24T22:39:28.093Z,10.90
2018-07-24T22:41:57.080Z,11.17
2018-07-24T22:44:25.683Z,9.90
2018-07-24T22:46:53.719Z,11.00
2018-07-24T22:49:21.813Z,11.27
2018-07-24T22:51:49.807Z,11.03
2018-07-24T22:54:17.774Z,10.97
2018-07-24T22:56:45.780Z,11.03
2018-07-24T22:59:13.738Z,11.17
2018-07-24T23:01:41.815Z,11.30
2018-07-24T23:04:09.799Z,11.70
2018-07-24T23:06:37.750Z,12.10
2018-07-24T23:09:06.970Z,12.23
2018-07-24T23:11:34.984Z,10.03
2018-07-24T23:14:02.991Z,11.97
2018-07-24T23:16:30.976Z,11.10
2018-07-24T23:18:59.544Z,11.10
2018-07-24T23:21:28.662Z,11.37
2018-07-24T23:23:57.488Z,13.20
2018-07-24T23:26:25.580Z,11.70
2018-07-24T23:28:53.815Z,12.57
2018-07-24T23:31:21.769Z,10.47
2018-07-24T23:33:49.766Z,11.20
2018-07-24T23:36:17.745Z,11.50
2018-07-24T23:38:45.735Z,10.93
2018-07-24T23:41:13.746Z,12.13
2018-07-24T23:43:41.733Z,12.20
2018-07-24T23:46:09.712Z,12.60
2018-07-24T23:48:37.737Z,12.30
2018-07-24T23:51:05.715Z,10.90
2018-07-24T23:53:33.721Z,13.53
2018-07-24T23:56:01.814Z,12.40
2018-07-24T23:58:30.509Z,11.70
